Time;durP1;ratioP1;P1;durP2;ratioP2;P2;SDS_P1;SDS_P2;PMS_P1;PMS_P2;Temp;Humidity;BMP_temperature;BMP_pressure;BME280_temperature;BME280_humidity;BME280_pressure;Samples;Min_cycle;Max_cycle;Signal;HPM_P1;HPM_P2
2022/11/17 00:00:44;;;;;;;;;;;;;;;;;;5052485;28;1917;-74
2022/11/17 00:03:13;;;;;;;;;;;;;;;;;;5049343;28;1060;-74
2022/11/17 00:05:40;;;;;;;;;;;;;;;;;;5048117;28;1183;-74
2022/11/17 00:08:07;;;;;;;;;;;;;;;;;;5052416;28;1047;-74
2022/11/17 00:10:33;;;;;;;;;;;;;;;;;;5053536;28;1349;-74
2022/11/17 00:15:52;;;;;;;;;;;;;;;;;;5057717;28;2076;-74
2022/11/17 00:21:20;;;;;;;;;;;;;;;;;;5072385;28;2151;-74
2022/11/17 00:23:49;;;;;;;;;;;;;;;;;;5073256;28;1065;-75
2022/11/17 00:26:15;;;;;;;;;;;;;;;;;;5073536;28;1048;-74
2022/11/17 00:28:41;;;;;;;;;;;;;;;;;;5088718;28;1348;-74
2022/11/17 00:34:04;;;;;;;;;;;;;;;;;;5073082;28;1008;-75
2022/11/17 00:36:32;;;;;;;;;;;;;;;;;;5073129;28;1051;-75
2022/11/17 00:38:59;;;;;;;;;;;;;;;;;;5088502;28;1303;-75
2022/11/17 00:41:25;;;;;;;;;;;;;;;;;;5072447;28;1985;-74
2022/11/17 00:43:51;;;;;;;;;;;;;;;;;;5072310;28;1067;-75
2022/11/17 00:46:17;;;;;;;;;;;;;;;;;;5072059;28;810;-75
2022/11/17 00:48:44;;;;;;;;;;;;;;;;;;5070744;28;1331;-75
2022/11/17 00:51:10;;;;;;;;;;;;;;;;;;5072474;28;1142;-74
2022/11/17 00:53:37;;;;;;;;;;;;;;;;;;5068930;28;1019;-74
2022/11/17 00:56:04;;;;;;;;;;;;;;;;;;5068685;28;1198;-75
2022/11/17 00:58:30;;;;;;;;;;;;;;;;;;5067243;28;1358;-74
2022/11/17 01:00:56;;;;;;;;;;;;;;;;;;5067469;28;1902;-74
2022/11/17 01:03:22;;;;;;;;;;;;;;;;;;5066463;28;1074;-75
2022/11/17 01:05:48;;;;;;;;;;;;;;;;;;5066946;28;858;-74
2022/11/17 01:08:15;;;;;;;;;;;;;;;;;;5066977;28;1067;-74
2022/11/17 01:10:42;;;;;;;;;;;;;;;;;;5065598;28;1314;-74
2022/11/17 01:13:08;;;;;;;;;;;;;;;;;;5081537;28;1362;-75
2022/11/17 01:15:35;;;;;;;;;;;;;;;;;;5083995;28;1981;-75
2022/11/17 01:18:01;;;;;;;;;;;;;;;;;;5083089;28;1434;-75
2022/11/17 01:20:27;;;;;;;;;;;;;;;;;;5068368;28;1982;-74
2022/11/17 01:22:53;;;;;;;;;;;;;;;;;;5082213;28;1612;-74
2022/11/17 01:25:19;;;;;;;;;;;;;;;;;;5067339;28;828;-74
2022/11/17 01:27:47;;;;;;;;;;;;;;;;;;5067293;28;1126;-74
2022/11/17 01:30:13;;;;;;;;;;;;;;;;;;5069943;28;1360;-74
2022/11/17 01:32:40;;;;;;;;;;;;;;;;;;5066314;28;1114;-75
2022/11/17 01:35:06;;;;;;;;;;;;;;;;;;5069953;28;924;-75
2022/11/17 01:37:32;;;;;;;;;;;;;;;;;;5067855;28;1117;-75
2022/11/17 01:39:59;;;;;;;;;;;;;;;;;;5067245;28;1348;-75
2022/11/17 01:42:25;;;;;;;;;;;;;;;;;;5067410;28;1906;-74
2022/11/17 01:44:57;;;;;;;;;;;;;;;;;;5081590;28;1494;-75
2022/11/17 01:47:25;;;;;;;;;;;;;;;;;;5070596;28;1111;-74
2022/11/17 01:49:52;;;;;;;;;;;;;;;;;;5087564;28;1312;-75
2022/11/17 01:52:19;;;;;;;;;;;;;;;;;;5071547;28;786;-74
2022/11/17 01:54:45;;;;;;;;;;;;;;;;;;5072179;28;878;-74
2022/11/17 01:57:12;;;;;;;;;;;;;;;;;;5053902;28;1169;-75
2022/11/17 01:59:39;;;;;;;;;;;;;;;;;;5050707;28;1288;-75
2022/11/17 02:02:07;;;;;;;;;;;;;;;;;;5054563;28;2020;-72
2022/11/17 02:04:33;;;;;;;;;;;;;;;;;;5082520;28;2220;-74
2022/11/17 02:07:00;;;;;;;;;;;;;;;;;;5070542;28;1097;-75
2022/11/17 02:09:26;;;;;;;;;;;;;;;;;;5072245;28;1355;-74
2022/11/17 02:11:53;;;;;;;;;;;;;;;;;;5071423;28;932;-75
2022/11/17 02:14:19;;;;;;;;;;;;;;;;;;5072175;28;968;-75
2022/11/17 02:16:45;;;;;;;;;;;;;;;;;;5071992;28;909;-75
2022/11/17 02:19:12;;;;;;;;;;;;;;;;;;5071984;28;1274;-75
2022/11/17 02:21:45;;;;;;;;;;;;;;;;;;5073108;28;1914;-74
2022/11/17 02:24:24;;;;;;;;;;;;;;;;;;5075853;28;849;-75
2022/11/17 02:27:09;;;;;;;;;;;;;;;;;;5076030;28;920;-74
2022/11/17 02:29:36;;;;;;;;;;;;;;;;;;5091682;28;1396;-75
2022/11/17 02:32:04;;;;;;;;;;;;;;;;;;5090662;28;1201;-75
2022/11/17 02:34:33;;;;;;;;;;;;;;;;;;5075865;28;794;-75
2022/11/17 02:37:00;;;;;;;;;;;;;;;;;;5075882;28;1051;-74
2022/11/17 02:39:29;;;;;;;;;;;;;;;;;;5075248;28;1282;-75
2022/11/17 02:41:55;;;;;;;;;;;;;;;;;;5074809;28;1910;-74
2022/11/17 02:44:21;;;;;;;;;;;;;;;;;;5072833;28;2011;-75
2022/11/17 02:46:50;;;;;;;;;;;;;;;;;;5072227;28;1992;-74
2022/11/17 02:49:18;;;;;;;;;;;;;;;;;;5075633;28;1361;-74
2022/11/17 02:51:44;;;;;;;;;;;;;;;;;;5074973;28;805;-74
2022/11/17 02:54:11;;;;;;;;;;;;;;;;;;5093645;28;1499;-74
2022/11/17 02:56:40;;;;;;;;;;;;;;;;;;5090049;28;1149;-74
2022/11/17 02:59:06;;;;;;;;;;;;;;;;;;5054579;28;1311;-73
2022/11/17 03:01:40;;;;;;;;;;;;;;;;;;5054850;28;1910;-74
2022/11/17 03:04:11;;;;;;;;;;;;;;;;;;5055374;28;763;-75
2022/11/17 03:06:38;;;;;;;;;;;;;;;;;;5053762;28;1033;-74
2022/11/17 03:09:07;;;;;;;;;;;;;;;;;;5055034;28;1365;-74
2022/11/17 03:11:34;;;;;;;;;;;;;;;;;;5054720;28;806;-75
2022/11/17 03:14:02;;;;;;;;;;;;;;;;;;5054716;28;779;-74
2022/11/17 03:16:29;;;;;;;;;;;;;;;;;;5054948;28;1067;-75
2022/11/17 03:19:00;;;;;;;;;;;;;;;;;;5054622;28;1379;-75
2022/11/17 03:21:28;;;;;;;;;;;;;;;;;;5052620;28;1915;-75
2022/11/17 03:23:55;;;;;;;;;;;;;;;;;;5054634;28;1126;-75
2022/11/17 03:26:22;;;;;;;;;;;;;;;;;;5054668;28;1068;-75
2022/11/17 03:28:49;;;;;;;;;;;;;;;;;;5054591;28;1393;-75
2022/11/17 03:31:15;;;;;;;;;;;;;;;;;;5053977;28;902;-73
2022/11/17 03:33:41;;;;;;;;;;;;;;;;;;5052758;28;1294;-74
2022/11/17 03:36:09;;;;;;;;;;;;;;;;;;5054448;28;1017;-75
2022/11/17 03:38:37;;;;;;;;;;;;;;;;;;5054271;28;1371;-74
2022/11/17 03:41:03;;;;;;;;;;;;;;;;;;5053140;28;1898;-75
2022/11/17 03:43:30;;;;;;;;;;;;;;;;;;5081495;22;3632;-74
2022/11/17 03:45:57;;;;;;;;;;;;;;;;;;5053728;28;1090;-74
2022/11/17 03:48:24;;;;;;;;;;;;;;;;;;5054064;28;1122;-75
2022/11/17 03:50:51;;;;;;;;;;;;;;;;;;5053820;28;1467;-74
2022/11/17 03:53:17;;;;;;;;;;;;;;;;;;5053356;28;1312;-74
2022/11/17 03:55:46;;;;;;;;;;;;;;;;;;5054050;28;1154;-74
2022/11/17 03:58:14;;;;;;;;;;;;;;;;;;5054167;28;976;-75
2022/11/17 04:00:40;;;;;;;;;;;;;;;;;;5052835;28;1447;-75
2022/11/17 04:03:07;;;;;;;;;;;;;;;;;;5053419;28;1918;-75
2022/11/17 04:05:33;;;;;;;;;;;;;;;;;;5054074;28;1063;-74
2022/11/17 04:07:59;;;;;;;;;;;;;;;;;;5054121;28;1114;-74
2022/11/17 04:10:25;;;;;;;;;;;;;;;;;;5052711;28;1167;-75
2022/11/17 04:18:17;;;;;;;;;;;;;;;;;;5053372;28;1352;-75
2022/11/17 04:20:43;;;;;;;;;;;;;;;;;;5052352;28;1380;-74
2022/11/17 04:23:12;;;;;;;;;;;;;;;;;;5052330;28;1981;-74
2022/11/17 04:28:37;;;;;;;;;;;;;;;;;;5053788;28;846;-74
2022/11/17 04:31:04;;;;;;;;;;;;;;;;;;5052245;28;1228;-74
2022/11/17 04:33:30;;;;;;;;;;;;;;;;;;5052350;28;1291;-75
2022/11/17 04:35:56;;;;;;;;;;;;;;;;;;5053399;28;821;-76
2022/11/17 04:38:23;;;;;;;;;;;;;;;;;;5053287;28;807;-76
2022/11/17 04:43:30;;;;;;;;;;;;;;;;;;5049719;28;1914;-76
2022/11/17 04:45:58;;;;;;;;;;;;;;;;;;5048613;28;1354;-74
2022/11/17 04:48:24;;;;;;;;;;;;;;;;;;5045460;28;1269;-75
2022/11/17 04:50:52;;;;;;;;;;;;;;;;;;5053003;28;1099;-72
2022/11/17 04:53:18;;;;;;;;;;;;;;;;;;5058805;28;1376;-76
2022/11/17 04:55:45;;;;;;;;;;;;;;;;;;5052494;28;1312;-76
2022/11/17 04:58:11;;;;;;;;;;;;;;;;;;5052433;28;1165;-76
2022/11/17 05:00:38;;;;;;;;;;;;;;;;;;5064882;28;1390;-76
2022/11/17 05:03:05;;;;;;;;;;;;;;;;;;5053524;28;1985;-76
2022/11/17 05:05:31;;;;;;;;;;;;;;;;;;5042321;28;1361;-75
2022/11/17 05:07:57;;;;;;;;;;;;;;;;;;5052859;28;1153;-75
2022/11/17 05:13:20;;;;;;;;;;;;;;;;;;5050627;28;1383;-75
2022/11/17 05:13:24;;;;;;;;;;;;;;;;;;5046112;28;1434;-76
2022/11/17 05:18:37;;;;;;;;;;;;;;;;;;5045631;28;1165;-76
2022/11/17 05:21:03;;;;;;;;;;;;;;;;;;5052546;28;909;-73
2022/11/17 05:26:13;;;;;;;;;;;;;;;;;;5055102;28;1219;-76
2022/11/17 05:28:39;;;;;;;;;;;;;;;;;;5052576;28;1060;-75
2022/11/17 05:31:07;;;;;;;;;;;;;;;;;;5051496;28;1237;-75
2022/11/17 05:33:33;;;;;;;;;;;;;;;;;;5051167;28;1296;-75
2022/11/17 05:35:59;;;;;;;;;;;;;;;;;;5068085;28;1298;-76
2022/11/17 05:38:25;;;;;;;;;;;;;;;;;;5070734;28;1059;-77
2022/11/17 05:40:52;;;;;;;;;;;;;;;;;;5070891;28;762;-76
2022/11/17 05:43:18;;;;;;;;;;;;;;;;;;5069288;28;1977;-76
2022/11/17 05:45:44;;;;;;;;;;;;;;;;;;5059399;28;1458;-75
2022/11/17 05:48:12;;;;;;;;;;;;;;;;;;5049427;28;1305;-76
2022/11/17 05:50:38;;;;;;;;;;;;;;;;;;5051224;28;1109;-76
2022/11/17 05:53:04;;;;;;;;;;;;;;;;;;5049712;28;1282;-77
2022/11/17 05:55:30;;;;;;;;;;;;;;;;;;5052154;28;1197;-76
2022/11/17 05:57:57;;;;;;;;;;;;;;;;;;5052131;28;1110;-75
2022/11/17 06:00:23;;;;;;;;;;;;;;;;;;5052033;28;1107;-75
2022/11/17 06:02:50;;;;;;;;;;;;;;;;;;5051341;28;1910;-75
2022/11/17 06:05:18;;;;;;;;;;;;;;;;;;5052199;28;1046;-75
2022/11/17 06:07:44;;;;;;;;;;;;;;;;;;5050535;28;1233;-76
2022/11/17 06:10:10;;;;;;;;;;;;;;;;;;5052142;28;1027;-76
2022/11/17 06:12:37;;;;;;;;;;;;;;;;;;5049426;28;1325;-75
2022/11/17 06:15:03;;;;;;;;;;;;;;;;;;5051966;28;932;-76
2022/11/17 06:17:30;;;;;;;;;;;;;;;;;;5051972;28;933;-76
2022/11/17 06:19:58;;;;;;;;;;;;;;;;;;5052064;28;704;-75
2022/11/17 06:22:25;;;;;;;;;;;;;;;;;;5051073;28;1914;-75
2022/11/17 06:24:51;;;;;;;;;;;;;;;;;;5052000;28;1095;-75
2022/11/17 06:27:18;;;;;;;;;;;;;;;;;;5052109;28;1055;-76
2022/11/17 06:29:45;;;;;;;;;;;;;;;;;;5050102;28;1055;-75
2022/11/17 06:32:12;;;;;;;;;;;;;;;;;;5052352;28;1387;-76
2022/11/17 06:34:38;;;;;;;;;;;;;;;;;;5052528;28;1079;-75
2022/11/17 06:37:04;;;;;;;;;;;;;;;;;;5049640;28;1131;-76
2022/11/17 06:39:32;;;;;;;;;;;;;;;;;;5046500;28;801;-75
2022/11/17 06:41:58;;;;;;;;;;;;;;;;;;5046599;28;1977;-75
2022/11/17 06:44:24;;;;;;;;;;;;;;;;;;5049545;28;1342;-75
2022/11/17 06:46:50;;;;;;;;;;;;;;;;;;5048395;28;1298;-76
2022/11/17 06:49:16;;;;;;;;;;;;;;;;;;5047162;28;873;-75
2022/11/17 06:51:43;;;;;;;;;;;;;;;;;;5045305;28;1063;-77
2022/11/17 06:54:09;;;;;;;;;;;;;;;;;;5046463;28;1308;-76
2022/11/17 06:56:36;;;;;;;;;;;;;;;;;;5049981;28;1230;-76
2022/11/17 06:59:03;;;;;;;;;;;;;;;;;;5050076;28;1174;-76
2022/11/17 07:01:29;;;;;;;;;;;;;;;;;;5049328;28;1087;-76
2022/11/17 07:03:55;;;;;;;;;;;;;;;;;;5051312;28;1985;-75
2022/11/17 07:06:21;;;;;;;;;;;;;;;;;;5051341;28;1127;-76
2022/11/17 07:08:49;;;;;;;;;;;;;;;;;;5054716;28;869;-76
2022/11/17 07:11:16;;;;;;;;;;;;;;;;;;5054615;28;1106;-73
2022/11/17 07:13:43;;;;;;;;;;;;;;;;;;5054693;28;1316;-75
2022/11/17 07:16:10;;;;;;;;;;;;;;;;;;5054971;28;754;-75
2022/11/17 07:18:37;;;;;;;;;;;;;;;;;;5054863;28;1063;-77
2022/11/17 07:21:03;;;;;;;;;;;;;;;;;;5054912;28;870;-76
2022/11/17 07:23:29;;;;;;;;;;;;;;;;;;5054010;28;1910;-75
2022/11/17 07:25:56;;;;;;;;;;;;;;;;;;5054977;28;747;-76
2022/11/17 07:28:22;;;;;;;;;;;;;;;;;;5054990;28;1137;-75
2022/11/17 07:30:49;;;;;;;;;;;;;;;;;;5055047;28;1000;-75
2022/11/17 07:33:15;;;;;;;;;;;;;;;;;;5053915;28;1292;-75
2022/11/17 07:35:42;;;;;;;;;;;;;;;;;;5054915;28;941;-75
2022/11/17 07:38:08;;;;;;;;;;;;;;;;;;5054981;28;1143;-76
2022/11/17 07:40:34;;;;;;;;;;;;;;;;;;5054762;28;1111;-76
2022/11/17 07:43:00;;;;;;;;;;;;;;;;;;5051744;28;1981;-76
2022/11/17 07:45:27;;;;;;;;;;;;;;;;;;5053033;28;1482;-75
2022/11/17 07:47:55;;;;;;;;;;;;;;;;;;5054642;28;1071;-76
2022/11/17 07:50:22;;;;;;;;;;;;;;;;;;5054503;28;987;-76
2022/11/17 07:52:48;;;;;;;;;;;;;;;;;;5052354;28;1460;-75
2022/11/17 07:55:15;;;;;;;;;;;;;;;;;;5053092;28;1147;-76
2022/11/17 07:57:41;;;;;;;;;;;;;;;;;;5054200;28;862;-75
2022/11/17 08:00:08;;;;;;;;;;;;;;;;;;5054113;28;1072;-75
2022/11/17 08:02:38;;;;;;;;;;;;;;;;;;5052995;28;1914;-75
2022/11/17 08:05:06;;;;;;;;;;;;;;;;;;5054046;28;814;-75
2022/11/17 08:07:32;;;;;;;;;;;;;;;;;;5052711;28;1587;-76
2022/11/17 08:09:58;;;;;;;;;;;;;;;;;;5052811;28;1287;-74
2022/11/17 08:12:24;;;;;;;;;;;;;;;;;;5052929;28;1368;-75
2022/11/17 08:14:50;;;;;;;;;;;;;;;;;;5053989;28;1114;-75
2022/11/17 08:17:17;;;;;;;;;;;;;;;;;;5053659;28;1074;-75
2022/11/17 08:19:43;;;;;;;;;;;;;;;;;;5052555;28;937;-76
2022/11/17 08:22:10;;;;;;;;;;;;;;;;;;5052616;28;1325;-75
2022/11/17 08:24:36;;;;;;;;;;;;;;;;;;5053488;28;2008;-75
2022/11/17 08:27:03;;;;;;;;;;;;;;;;;;5053689;28;1127;-74
2022/11/17 08:29:29;;;;;;;;;;;;;;;;;;5052072;28;1112;-75
2022/11/17 08:31:55;;;;;;;;;;;;;;;;;;5052770;28;1123;-75
2022/11/17 08:34:21;;;;;;;;;;;;;;;;;;5051867;28;1285;-74
2022/11/17 08:36:47;;;;;;;;;;;;;;;;;;5052167;28;1253;-75
2022/11/17 08:39:15;;;;;;;;;;;;;;;;;;5052128;28;1208;-75
2022/11/17 08:41:41;;;;;;;;;;;;;;;;;;5051383;28;1399;-75
2022/11/17 08:44:07;;;;;;;;;;;;;;;;;;5052742;28;1898;-76
2022/11/17 08:46:34;;;;;;;;;;;;;;;;;;5053417;28;1068;-77
2022/11/17 08:49:00;;;;;;;;;;;;;;;;;;5053651;28;1060;-75
2022/11/17 08:51:28;;;;;;;;;;;;;;;;;;5052537;28;925;-75
2022/11/17 08:53:54;;;;;;;;;;;;;;;;;;5051907;28;1413;-76
2022/11/17 08:56:22;;;;;;;;;;;;;;;;;;5053079;28;1150;-75
2022/11/17 08:58:48;;;;;;;;;;;;;;;;;;5052755;28;1064;-75
2022/11/17 09:01:15;;;;;;;;;;;;;;;;;;5052673;28;751;-75
2022/11/17 09:03:41;;;;;;;;;;;;;;;;;;5051280;28;1976;-75
2022/11/17 09:06:08;;;;;;;;;;;;;;;;;;5051659;28;1170;-75
2022/11/17 09:08:34;;;;;;;;;;;;;;;;;;5052754;28;1118;-74
2022/11/17 09:11:03;;;;;;;;;;;;;;;;;;5052912;28;963;-75
2022/11/17 09:13:31;;;;;;;;;;;;;;;;;;5051683;28;1344;-75
2022/11/17 09:16:00;;;;;;;;;;;;;;;;;;5051552;28;1146;-76
2022/11/17 09:18:26;;;;;;;;;;;;;;;;;;5051779;28;1048;-76
2022/11/17 09:20:52;;;;;;;;;;;;;;;;;;5052369;28;761;-76
2022/11/17 09:23:18;;;;;;;;;;;;;;;;;;5051544;28;1903;-76
2022/11/17 09:25:44;;;;;;;;;;;;;;;;;;5052795;28;811;-75
2022/11/17 09:28:10;;;;;;;;;;;;;;;;;;5052915;28;783;-76
2022/11/17 09:30:38;;;;;;;;;;;;;;;;;;5054189;28;1108;-75
2022/11/17 09:33:04;;;;;;;;;;;;;;;;;;5057245;28;1254;-74
2022/11/17 09:35:30;;;;;;;;;;;;;;;;;;5057703;28;968;-75
2022/11/17 09:37:58;;;;;;;;;;;;;;;;;;5052244;28;1519;-74
2022/11/17 09:40:24;;;;;;;;;;;;;;;;;;5052180;28;1546;-74
2022/11/17 09:45:28;;;;;;;;;;;;;;;;;;5004373;28;1858;-76
2022/11/17 09:47:56;;;;;;;;;;;;;;;;;;5024310;28;1204;-75
2022/11/17 09:50:23;;;;;;;;;;;;;;;;;;4992847;28;943;-77
2022/11/17 09:52:52;;;;;;;;;;;;;;;;;;4992072;28;858;-76
2022/11/17 09:55:21;;;;;;;;;;;;;;;;;;4975398;28;1152;-76
2022/11/17 09:57:48;;;;;;;;;;;;;;;;;;5008037;28;1141;-76
2022/11/17 10:00:15;;;;;;;;;;;;;;;;;;4992835;28;862;-76
2022/11/17 10:02:41;;;;;;;;;;;;;;;;;;5007178;28;1093;-77
2022/11/17 10:05:13;;;;;;;;;;;;;;;;;;4992411;28;1958;-76
2022/11/17 10:07:39;;;;;;;;;;;;;;;;;;4992890;28;925;-76
2022/11/17 10:10:06;;;;;;;;;;;;;;;;;;4993669;28;2087;-77
2022/11/17 10:12:33;;;;;;;;;;;;;;;;;;4999716;28;2004;-76
2022/11/17 10:14:59;;;;;;;;;;;;;;;;;;5005516;28;1913;-77
2022/11/17 10:17:25;;;;;;;;;;;;;;;;;;4992380;28;1118;-76
2022/11/17 10:19:51;;;;;;;;;;;;;;;;;;4992319;28;866;-76
2022/11/17 10:22:27;;;;;;;;;;;;;;;;;;5006619;28;1159;-74
2022/11/17 10:24:56;;;;;;;;;;;;;;;;;;5011487;28;1926;-76
2022/11/17 10:27:23;;;;;;;;;;;;;;;;;;4999769;28;1219;-75
2022/11/17 10:29:55;;;;;;;;;;;;;;;;;;4992531;28;945;-77
2022/11/17 10:32:22;;;;;;;;;;;;;;;;;;5006320;28;1246;-77
2022/11/17 10:34:48;;;;;;;;;;;;;;;;;;5007719;28;1332;-77
2022/11/17 10:37:26;;;;;;;;;;;;;;;;;;5003487;28;1687;-77
2022/11/17 10:40:02;;;;;;;;;;;;;;;;;;5007414;28;1144;-77
2022/11/17 10:42:29;;;;;;;;;;;;;;;;;;5008264;28;1134;-75
2022/11/17 10:44:57;;;;;;;;;;;;;;;;;;5011212;28;1894;-76
2022/11/17 10:47:24;;;;;;;;;;;;;;;;;;5015759;28;1056;-76
2022/11/17 10:49:52;;;;;;;;;;;;;;;;;;5015921;28;1057;-78
2022/11/17 10:52:18;;;;;;;;;;;;;;;;;;5014719;28;763;-77
2022/11/17 10:54:48;;;;;;;;;;;;;;;;;;5014247;28;1387;-77
2022/11/17 10:57:15;;;;;;;;;;;;;;;;;;5015420;28;1179;-76
2022/11/17 10:59:42;;;;;;;;;;;;;;;;;;5015686;28;795;-77
2022/11/17 11:02:22;;;;;;;;;;;;;;;;;;5014619;28;1135;-76
2022/11/17 11:04:48;;;;;;;;;;;;;;;;;;5015470;28;1910;-76
2022/11/17 11:07:14;;;;;;;;;;;;;;;;;;5030572;28;1632;-76
2022/11/17 11:09:42;;;;;;;;;;;;;;;;;;5015228;28;1068;-76
2022/11/17 11:12:12;;;;;;;;;;;;;;;;;;5014621;28;1052;-76
2022/11/17 11:14:39;;;;;;;;;;;;;;;;;;5013948;28;1427;-77
2022/11/17 11:17:08;;;;;;;;;;;;;;;;;;5015176;28;925;-78
2022/11/17 11:19:35;;;;;;;;;;;;;;;;;;5013951;28;1192;-76
2022/11/17 11:22:03;;;;;;;;;;;;;;;;;;5029792;28;1144;-76
2022/11/17 11:24:30;;;;;;;;;;;;;;;;;;4997365;28;1973;-77
2022/11/17 11:26:58;;;;;;;;;;;;;;;;;;5015199;28;878;-77
2022/11/17 11:29:29;;;;;;;;;;;;;;;;;;5015025;28;881;-76
2022/11/17 11:32:03;;;;;;;;;;;;;;;;;;5029712;28;1299;-76
2022/11/17 11:34:37;;;;;;;;;;;;;;;;;;5014011;28;1464;-76
2022/11/17 11:37:04;;;;;;;;;;;;;;;;;;5015136;28;1127;-76
2022/11/17 11:39:32;;;;;;;;;;;;;;;;;;5014097;28;1105;-77
2022/11/17 11:42:14;;;;;;;;;;;;;;;;;;5014468;28;1517;-76
2022/11/17 11:44:44;;;;;;;;;;;;;;;;;;5015830;28;1906;-76
2022/11/17 11:47:13;;;;;;;;;;;;;;;;;;5014465;28;1254;-76
2022/11/17 11:49:40;;;;;;;;;;;;;;;;;;5014784;28;1052;-76
2022/11/17 11:52:10;;;;;;;;;;;;;;;;;;5013716;28;917;-76
2022/11/17 11:54:36;;;;;;;;;;;;;;;;;;5012877;28;1294;-77
2022/11/17 11:57:03;;;;;;;;;;;;;;;;;;5013165;28;1231;-75
2022/11/17 11:59:32;;;;;;;;;;;;;;;;;;5016784;28;2414;-75
2022/11/17 12:02:01;;;;;;;;;;;;;;;;;;5019801;28;1542;-76
2022/11/17 12:04:30;;;;;;;;;;;;;;;;;;5007225;28;1927;-76
2022/11/17 12:06:58;;;;;;;;;;;;;;;;;;5012515;28;1162;-76
2022/11/17 12:09:43;;;;;;;;;;;;;;;;;;5014082;28;1072;-75
2022/11/17 12:12:13;;;;;;;;;;;;;;;;;;5012103;28;1152;-76
2022/11/17 12:14:40;;;;;;;;;;;;;;;;;;5012713;28;1274;-77
2022/11/17 12:17:16;;;;;;;;;;;;;;;;;;5011386;28;1635;-76
2022/11/17 12:19:49;;;;;;;;;;;;;;;;;;5001399;28;1230;-77
2022/11/17 12:22:35;;;;;;;;;;;;;;;;;;5011621;28;1264;-76
2022/11/17 12:25:03;;;;;;;;;;;;;;;;;;5013718;28;1914;-76
2022/11/17 12:27:41;;;;;;;;;;;;;;;;;;5016264;28;1060;-76
2022/11/17 12:30:32;;;;;;;;;;;;;;;;;;5018417;28;1115;-75
2022/11/17 12:33:00;;;;;;;;;;;;;;;;;;5014143;28;1749;-76
2022/11/17 12:35:27;;;;;;;;;;;;;;;;;;5013603;28;977;-75
2022/11/17 12:38:12;;;;;;;;;;;;;;;;;;5013520;28;1061;-75
2022/11/17 12:40:42;;;;;;;;;;;;;;;;;;5013740;28;783;-76
2022/11/17 12:43:21;;;;;;;;;;;;;;;;;;5015217;28;2096;-76
2022/11/17 12:46:08;;;;;;;;;;;;;;;;;;5013535;28;1912;-76
2022/11/17 12:48:36;;;;;;;;;;;;;;;;;;4987480;28;1458;-76
2022/11/17 12:51:05;;;;;;;;;;;;;;;;;;5013787;28;1044;-76
2022/11/17 12:53:32;;;;;;;;;;;;;;;;;;5010975;28;1318;-76
2022/11/17 12:56:11;;;;;;;;;;;;;;;;;;5013712;28;1168;-76
2022/11/17 12:58:40;;;;;;;;;;;;;;;;;;5011737;28;1197;-77
2022/11/17 13:01:09;;;;;;;;;;;;;;;;;;5013667;28;913;-78
2022/11/17 13:03:39;;;;;;;;;;;;;;;;;;5027706;28;1318;-76
2022/11/17 13:06:08;;;;;;;;;;;;;;;;;;5012679;28;1899;-75
2022/11/17 13:08:34;;;;;;;;;;;;;;;;;;5012989;28;1068;-75
2022/11/17 13:11:05;;;;;;;;;;;;;;;;;;4995546;28;1217;-76
2022/11/17 13:13:31;;;;;;;;;;;;;;;;;;4994543;28;1310;-76
2022/11/17 13:15:59;;;;;;;;;;;;;;;;;;5012847;28;1036;-77
2022/11/17 13:18:27;;;;;;;;;;;;;;;;;;5012729;28;921;-75
2022/11/17 13:20:54;;;;;;;;;;;;;;;;;;5013201;28;1056;-76
2022/11/17 13:23:22;;;;;;;;;;;;;;;;;;5012261;28;1328;-78
2022/11/17 13:25:48;;;;;;;;;;;;;;;;;;5011945;28;1977;-76
2022/11/17 13:28:25;;;;;;;;;;;;;;;;;;5013571;28;818;-76
2022/11/17 13:30:51;;;;;;;;;;;;;;;;;;5011693;28;1246;-76
2022/11/17 13:33:19;;;;;;;;;;;;;;;;;;5011678;28;1325;-75
2022/11/17 13:35:46;;;;;;;;;;;;;;;;;;5012685;28;1060;-76
2022/11/17 13:38:17;;;;;;;;;;;;;;;;;;5012766;28;881;-76
2022/11/17 13:40:44;;;;;;;;;;;;;;;;;;5012729;28;1048;-76
2022/11/17 13:43:11;;;;;;;;;;;;;;;;;;5026738;28;1416;-75
2022/11/17 13:45:37;;;;;;;;;;;;;;;;;;5011259;28;1910;-75
2022/11/17 13:48:03;;;;;;;;;;;;;;;;;;5012533;28;930;-75
2022/11/17 13:50:36;;;;;;;;;;;;;;;;;;5011933;28;1469;-75
2022/11/17 13:53:04;;;;;;;;;;;;;;;;;;5026403;28;1399;-75
2022/11/17 13:55:32;;;;;;;;;;;;;;;;;;5012216;28;1188;-72
2022/11/17 13:57:59;;;;;;;;;;;;;;;;;;5012362;28;1080;-76
2022/11/17 14:00:26;;;;;;;;;;;;;;;;;;5012227;28;1107;-75
2022/11/17 14:02:53;;;;;;;;;;;;;;;;;;4993892;28;1392;-75
2022/11/17 14:05:21;;;;;;;;;;;;;;;;;;5010772;28;1984;-75
2022/11/17 14:07:48;;;;;;;;;;;;;;;;;;5012136;28;858;-75
2022/11/17 14:10:15;;;;;;;;;;;;;;;;;;5011820;28;1096;-76
2022/11/17 14:12:42;;;;;;;;;;;;;;;;;;5011512;28;895;-75
2022/11/17 14:15:18;;;;;;;;;;;;;;;;;;5012084;28;1321;-75
2022/11/17 14:17:47;;;;;;;;;;;;;;;;;;5014148;28;938;-75
2022/11/17 14:20:17;;;;;;;;;;;;;;;;;;5014784;28;1152;-75
2022/11/17 14:22:58;;;;;;;;;;;;;;;;;;5014046;28;1104;-74
2022/11/17 14:25:24;;;;;;;;;;;;;;;;;;5015849;28;1976;-75
2022/11/17 14:27:51;;;;;;;;;;;;;;;;;;5018353;28;2073;-76
2022/11/17 14:30:18;;;;;;;;;;;;;;;;;;5017488;28;1857;-74
2022/11/17 14:32:45;;;;;;;;;;;;;;;;;;5005346;28;1113;-74
2022/11/17 14:35:12;;;;;;;;;;;;;;;;;;5012065;28;1765;-75
2022/11/17 14:37:39;;;;;;;;;;;;;;;;;;5014418;28;1132;-76
2022/11/17 14:40:06;;;;;;;;;;;;;;;;;;5014402;28;1200;-75
2022/11/17 14:42:33;;;;;;;;;;;;;;;;;;5013689;28;1336;-76
2022/11/17 14:45:01;;;;;;;;;;;;;;;;;;5014053;28;1902;-75
2022/11/17 14:47:27;;;;;;;;;;;;;;;;;;4997509;28;1149;-75
2022/11/17 14:49:54;;;;;;;;;;;;;;;;;;5015452;28;1112;-76
2022/11/17 14:52:20;;;;;;;;;;;;;;;;;;5014974;28;740;-75
2022/11/17 14:54:46;;;;;;;;;;;;;;;;;;5015525;28;1458;-75
2022/11/17 14:57:12;;;;;;;;;;;;;;;;;;5015138;28;1168;-76
2022/11/17 14:59:38;;;;;;;;;;;;;;;;;;5015583;28;783;-75
2022/11/17 15:02:06;;;;;;;;;;;;;;;;;;5014319;28;1049;-75
2022/11/17 15:04:32;;;;;;;;;;;;;;;;;;5014769;28;1918;-75
2022/11/17 15:06:58;;;;;;;;;;;;;;;;;;5015454;28;747;-75
2022/11/17 15:09:25;;;;;;;;;;;;;;;;;;5015176;28;1043;-76
2022/11/17 15:11:51;;;;;;;;;;;;;;;;;;5027905;28;2008;-74
2022/11/17 15:14:17;;;;;;;;;;;;;;;;;;5017658;28;1822;-75
2022/11/17 15:16:43;;;;;;;;;;;;;;;;;;5014893;28;1146;-77
2022/11/17 15:19:11;;;;;;;;;;;;;;;;;;5013503;28;1116;-76
2022/11/17 15:21:38;;;;;;;;;;;;;;;;;;5009341;28;1002;-76
2022/11/17 15:24:05;;;;;;;;;;;;;;;;;;5013939;28;1353;-77
2022/11/17 15:26:32;;;;;;;;;;;;;;;;;;5014058;28;1969;-77
2022/11/17 15:28:59;;;;;;;;;;;;;;;;;;5014146;28;1077;-77
2022/11/17 15:31:26;;;;;;;;;;;;;;;;;;5014298;28;811;-78
2022/11/17 15:33:52;;;;;;;;;;;;;;;;;;5013007;28;1260;-77
2022/11/17 15:36:20;;;;;;;;;;;;;;;;;;5014056;28;1072;-76
2022/11/17 15:38:47;;;;;;;;;;;;;;;;;;5030240;28;1264;-76
2022/11/17 15:41:13;;;;;;;;;;;;;;;;;;4993545;28;1409;-77
2022/11/17 15:43:41;;;;;;;;;;;;;;;;;;4996373;28;1282;-76
2022/11/17 15:46:08;;;;;;;;;;;;;;;;;;4995571;28;1914;-77
2022/11/17 15:48:37;;;;;;;;;;;;;;;;;;5015049;22;3534;-72
2022/11/17 15:51:04;;;;;;;;;;;;;;;;;;5035177;28;1749;-74
2022/11/17 15:53:31;;;;;;;;;;;;;;;;;;5053105;28;1013;-74
2022/11/17 15:56:01;;;;;;;;;;;;;;;;;;5052869;28;1048;-72
2022/11/17 15:58:28;;;;;;;;;;;;;;;;;;5053562;28;1411;-74
2022/11/17 16:00:54;;;;;;;;;;;;;;;;;;5053716;28;1040;-74
2022/11/17 16:03:20;;;;;;;;;;;;;;;;;;5052948;28;1009;-75
2022/11/17 16:05:46;;;;;;;;;;;;;;;;;;5053292;28;1910;-74
2022/11/17 16:08:13;;;;;;;;;;;;;;;;;;5053758;28;1032;-74
2022/11/17 16:10:40;;;;;;;;;;;;;;;;;;5035494;28;1484;-74
2022/11/17 16:13:06;;;;;;;;;;;;;;;;;;5052769;28;886;-75
2022/11/17 16:15:32;;;;;;;;;;;;;;;;;;5053138;28;1072;-74
2022/11/17 16:17:59;;;;;;;;;;;;;;;;;;5053096;28;997;-74
2022/11/17 16:20:25;;;;;;;;;;;;;;;;;;5052925;28;1302;-75
2022/11/17 16:22:51;;;;;;;;;;;;;;;;;;5052238;28;1076;-75
2022/11/17 16:25:17;;;;;;;;;;;;;;;;;;5053167;28;1902;-74
2022/11/17 16:27:45;;;;;;;;;;;;;;;;;;5053074;28;750;-74
2022/11/17 16:30:11;;;;;;;;;;;;;;;;;;5053294;28;1297;-75
2022/11/17 16:32:38;;;;;;;;;;;;;;;;;;5052325;28;977;-74
2022/11/17 16:35:04;;;;;;;;;;;;;;;;;;5052830;28;1108;-74
2022/11/17 16:37:30;;;;;;;;;;;;;;;;;;5053139;28;1829;-73
2022/11/17 16:39:57;;;;;;;;;;;;;;;;;;5052057;28;1408;-76
2022/11/17 16:42:23;;;;;;;;;;;;;;;;;;5052730;28;921;-75
2022/11/17 16:44:50;;;;;;;;;;;;;;;;;;5035310;28;1296;-75
2022/11/17 16:47:17;;;;;;;;;;;;;;;;;;5052887;28;1957;-75
2022/11/17 16:49:43;;;;;;;;;;;;;;;;;;5034213;28;1314;-75
2022/11/17 16:52:09;;;;;;;;;;;;;;;;;;5052070;28;1064;-75
2022/11/17 16:54:36;;;;;;;;;;;;;;;;;;5052845;28;966;-75
2022/11/17 16:57:02;;;;;;;;;;;;;;;;;;5035134;28;1307;-74
2022/11/17 16:59:28;;;;;;;;;;;;;;;;;;5052603;28;1246;-76
2022/11/17 17:01:56;;;;;;;;;;;;;;;;;;5047005;28;1435;-76
2022/11/17 17:04:22;;;;;;;;;;;;;;;;;;5050467;28;1194;-77
2022/11/17 17:06:48;;;;;;;;;;;;;;;;;;5052350;28;1914;-75
2022/11/17 17:09:14;;;;;;;;;;;;;;;;;;5053256;28;1286;-76
2022/11/17 17:11:41;;;;;;;;;;;;;;;;;;5042507;28;1455;-75
2022/11/17 17:14:07;;;;;;;;;;;;;;;;;;5049911;28;1355;-75
2022/11/17 17:16:35;;;;;;;;;;;;;;;;;;5045750;28;1205;-75
2022/11/17 17:19:04;;;;;;;;;;;;;;;;;;5033516;28;1499;-76
2022/11/17 17:21:31;;;;;;;;;;;;;;;;;;5032784;28;1480;-74
2022/11/17 17:23:57;;;;;;;;;;;;;;;;;;5052518;28;1202;-77
2022/11/17 17:26:24;;;;;;;;;;;;;;;;;;5051904;28;1973;-76
2022/11/17 17:28:51;;;;;;;;;;;;;;;;;;5044382;28;1415;-76
2022/11/17 17:31:18;;;;;;;;;;;;;;;;;;4973111;28;1289;-75
2022/11/17 17:33:44;;;;;;;;;;;;;;;;;;4971072;28;881;-75
2022/11/17 17:36:13;;;;;;;;;;;;;;;;;;4967074;28;944;-73